Time;durP1;ratioP1;P1;durP2;ratioP2;P2;SDS_P1;SDS_P2;PMS_P1;PMS_P2;Temp;Humidity;BMP_temperature;BMP_pressure;BME280_temperature;BME280_humidity;BME280_pressure;Samples;Min_cycle;Max_cycle;Signal;HPM_P1;HPM_P2
2021/12/29 00:01:05;;;;;;;31.00;11.60;;;;;;;1.34;86.91;98806.09;51367;1317;1015962;-62
2021/12/29 00:03:37;;;;;;;35.70;13.50;;;;;;;1.36;86.90;98806.50;51425;1313;1016788;-63
2021/12/29 00:06:08;;;;;;;35.60;12.80;;;;;;;1.38;87.00;98808.01;51298;1316;1016433;-63
2021/12/29 00:08:41;;;;;;;33.60;11.70;;;;;;;1.40;86.96;98810.80;51416;1319;1015908;-63
2021/12/29 00:11:13;;;;;;;36.20;14.10;;;;;;;1.43;87.01;98812.43;51486;1312;1016650;-63
2021/12/29 00:13:45;;;;;;;35.50;12.60;;;;;;;1.46;86.94;98812.13;51547;1316;1016665;-63
2021/12/29 00:16:16;;;;;;;38.10;12.60;;;;;;;1.48;86.96;98809.23;51428;1313;1016229;-63
2021/12/29 00:18:47;;;;;;;28.70;13.00;;;;;;;1.53;86.90;98810.15;51426;1313;1016681;-63
2021/12/29 00:21:18;;;;;;;31.90;12.70;;;;;;;1.58;86.86;98809.02;51428;1313;1016214;-63
2021/12/29 00:23:51;;;;;;;31.90;12.00;;;;;;;1.62;86.83;98810.17;51427;1319;1015919;-63
2021/12/29 00:26:22;;;;;;;29.10;10.20;;;;;;;1.64;86.80;98811.83;51475;1318;1016097;-64
2021/12/29 00:28:54;;;;;;;32.80;10.10;;;;;;;1.68;86.86;98814.60;51394;1316;1016546;-64
2021/12/29 00:31:25;;;;;;;25.80;10.50;;;;;;;1.73;86.81;98812.90;51404;1316;1016213;-63
2021/12/29 00:33:57;;;;;;;23.60;8.30;;;;;;;1.78;86.71;98807.27;51479;1312;1016043;-63
2021/12/29 00:36:28;;;;;;;24.70;7.30;;;;;;;1.81;86.76;98812.02;51486;1317;1016561;-63
2021/12/29 00:39:00;;;;;;;26.30;8.20;;;;;;;1.85;86.73;98811.23;51407;1319;1016577;-64
2021/12/29 00:41:31;;;;;;;24.00;7.80;;;;;;;1.87;86.63;98811.05;51465;1319;1016292;-63
2021/12/29 00:44:02;;;;;;;25.40;9.20;;;;;;;1.89;86.72;98814.39;51377;1319;1016584;-63
2021/12/29 00:46:34;;;;;;;26.70;8.80;;;;;;;1.93;86.74;98809.02;51427;1319;1016551;-65
2021/12/29 00:49:08;;;;;;;26.30;8.90;;;;;;;2.00;86.74;98810.77;51478;1319;1016451;-64
2021/12/29 00:51:39;;;;;;;20.30;6.50;;;;;;;2.06;86.63;98809.88;51426;1317;1016236;-62
2021/12/29 00:54:10;;;;;;;23.20;6.80;;;;;;;2.10;86.56;98813.09;51391;1317;1016280;-62
2021/12/29 00:56:44;;;;;;;21.40;7.00;;;;;;;2.12;86.55;98810.12;51477;1319;1016438;-62
2021/12/29 00:59:15;;;;;;;18.10;5.20;;;;;;;2.13;86.43;98806.61;51440;1319;1016566;-62
2021/12/29 01:01:47;;;;;;;17.60;4.40;;;;;;;2.12;86.29;98800.02;51465;1312;1015754;-63
2021/12/29 01:04:19;;;;;;;16.00;4.90;;;;;;;2.05;86.31;98799.78;51429;1319;1015937;-62
2021/12/29 01:06:50;;;;;;;20.80;5.60;;;;;;;2.05;86.30;98800.58;51373;1316;1016189;-62
2021/12/29 01:09:21;;;;;;;19.10;5.40;;;;;;;2.04;86.44;98797.34;51405;1319;1015995;-63
2021/12/29 01:11:56;;;;;;;20.30;5.80;;;;;;;2.02;86.38;98799.62;51424;1319;1020090;-63
2021/12/29 01:14:30;;;;;;;15.80;4.80;;;;;;;2.04;86.49;98796.50;51414;1316;1016477;-62
2021/12/29 01:17:02;;;;;;;16.10;4.00;;;;;;;2.06;86.46;98798.89;51488;1319;1016381;-63
2021/12/29 01:19:33;;;;;;;18.10;5.40;;;;;;;2.03;86.41;98799.63;51433;1317;1016499;-63
2021/12/29 01:22:05;;;;;;;15.70;4.40;;;;;;;2.00;86.33;98800.95;51343;1312;1016350;-63
2021/12/29 01:24:37;;;;;;;13.10;3.40;;;;;;;1.97;86.42;98806.42;51491;1313;1016622;-62
2021/12/29 01:27:08;;;;;;;15.30;3.80;;;;;;;1.95;86.43;98804.29;51422;1319;1016659;-63
2021/12/29 01:29:39;;;;;;;14.60;3.30;;;;;;;1.97;86.57;98803.98;51399;1317;1016606;-62
2021/12/29 01:32:12;;;;;;;13.20;3.50;;;;;;;1.96;86.36;98803.16;51370;1319;1016590;-61
2021/12/29 01:34:43;;;;;;;11.40;2.70;;;;;;;1.96;86.40;98803.53;51223;1312;1016075;-61
2021/12/29 01:37:17;;;;;;;15.10;4.10;;;;;;;1.98;86.40;98809.77;51305;1319;1016524;-60
2021/12/29 01:39:48;;;;;;;12.40;3.40;;;;;;;1.99;86.36;98809.85;51299;1318;1016582;-60
2021/12/29 01:42:19;;;;;;;16.50;4.40;;;;;;;2.00;86.43;98813.52;51175;1315;1019026;-60
2021/12/29 01:44:51;;;;;;;18.10;4.70;;;;;;;2.02;86.43;98802.59;51356;1319;1016113;-60
2021/12/29 01:47:28;;;;;;;19.00;4.90;;;;;;;2.03;86.37;98802.67;51428;1319;1017071;-61
2021/12/29 01:50:01;;;;;;;15.90;4.70;;;;;;;2.05;86.35;98803.42;51256;1319;1016562;-61
2021/12/29 01:52:37;;;;;;;15.20;3.80;;;;;;;2.10;86.45;98802.33;51410;1318;1016503;-60
2021/12/29 01:55:12;;;;;;;17.40;4.70;;;;;;;2.12;86.32;98806.04;51289;1317;1016683;-61
2021/12/29 01:57:45;;;;;;;18.60;4.00;;;;;;;2.15;86.39;98804.08;51219;1317;1016596;-61
2021/12/29 02:00:20;;;;;;;16.20;3.90;;;;;;;2.19;86.27;98802.58;51289;1318;1016695;-62
2021/12/29 02:02:52;;;;;;;17.10;4.40;;;;;;;2.25;86.34;98801.39;51339;1318;1016351;-62
2021/12/29 02:05:23;;;;;;;13.10;3.80;;;;;;;2.32;86.30;98794.48;51377;1319;1016989;-60
2021/12/29 02:07:54;;;;;;;15.80;4.00;;;;;;;2.34;86.06;98789.09;51319;1318;1015830;-61
2021/12/29 02:10:25;;;;;;;15.50;3.70;;;;;;;2.38;86.05;98790.85;51273;1319;1016261;-60
2021/12/29 02:12:57;;;;;;;13.30;3.80;;;;;;;2.43;86.01;98790.06;51366;1318;1016118;-61
2021/12/29 02:15:29;;;;;;;14.90;4.00;;;;;;;2.51;86.06;98792.11;51344;1317;1017319;-61
2021/12/29 02:18:00;;;;;;;13.60;3.20;;;;;;;2.58;85.91;98795.90;51253;1316;1016405;-60
2021/12/29 02:20:31;;;;;;;13.20;3.20;;;;;;;2.62;85.82;98797.52;51334;1319;1016879;-61
2021/12/29 02:23:13;;;;;;;17.80;4.10;;;;;;;2.64;85.73;98796.63;51297;1319;1016284;-61
2021/12/29 02:25:53;;;;;;;15.60;4.90;;;;;;;2.69;85.60;98795.86;51244;1319;1016367;-61
2021/12/29 02:28:28;;;;;;;12.20;3.30;;;;;;;2.71;85.48;98800.17;51198;1319;1016571;-62
2021/12/29 02:31:00;;;;;;;16.10;4.00;;;;;;;2.72;85.51;98801.34;51317;1318;1016316;-61
2021/12/29 02:33:34;;;;;;;15.40;4.60;;;;;;;2.71;85.37;98809.39;51312;1317;1016040;-61
2021/12/29 02:36:07;;;;;;;14.50;3.70;;;;;;;2.68;85.38;98810.36;51260;1319;1020134;-62
2021/12/29 02:38:45;;;;;;;16.80;5.00;;;;;;;2.68;85.37;98808.95;51191;1319;1016457;-61
2021/12/29 02:41:17;;;;;;;12.30;3.40;;;;;;;2.67;85.40;98808.08;51243;1319;1017258;-61
2021/12/29 02:43:57;;;;;;;16.70;4.20;;;;;;;2.65;85.41;98810.74;51286;1319;1018899;-61
2021/12/29 02:46:31;;;;;;;15.50;3.20;;;;;;;2.65;85.32;98814.54;51249;1319;1016190;-61
2021/12/29 02:49:03;;;;;;;18.90;4.40;;;;;;;2.66;85.33;98812.77;51286;1318;1016609;-61
2021/12/29 02:51:35;;;;;;;14.00;4.30;;;;;;;2.64;85.24;98819.21;51268;1312;1016681;-61
2021/12/29 02:54:07;;;;;;;14.40;4.20;;;;;;;2.63;85.23;98820.39;51308;1317;1016664;-61
2021/12/29 02:56:38;;;;;;;14.70;3.90;;;;;;;2.64;85.32;98818.21;51420;1319;1016319;-62
2021/12/29 02:59:10;;;;;;;15.20;4.00;;;;;;;2.66;85.22;98821.75;51254;1315;1016211;-61
2021/12/29 03:01:42;;;;;;;15.40;4.10;;;;;;;2.64;85.25;98825.21;51304;1319;1016696;-61
2021/12/29 03:04:13;;;;;;;15.60;5.00;;;;;;;2.69;85.33;98828.53;51305;1319;1017863;-62
2021/12/29 03:06:45;;;;;;;16.10;4.60;;;;;;;2.70;85.20;98832.02;51379;1319;1015970;-61
2021/12/29 03:09:17;;;;;;;18.20;4.90;;;;;;;2.74;85.27;98838.73;51299;1319;1017404;-61
2021/12/29 03:11:49;;;;;;;16.00;4.60;;;;;;;2.77;85.18;98847.78;51392;1319;1019674;-61
2021/12/29 03:14:21;;;;;;;17.40;4.70;;;;;;;2.73;84.98;98851.11;51367;1319;1016995;-61
2021/12/29 03:16:52;;;;;;;16.70;4.40;;;;;;;2.71;85.06;98847.90;51337;1319;1019173;-61
2021/12/29 03:19:23;;;;;;;15.00;4.00;;;;;;;2.67;84.95;98851.05;51206;1314;1015655;-60
2021/12/29 03:21:54;;;;;;;17.70;5.40;;;;;;;2.58;84.95;98852.46;51265;1319;1016679;-61
2021/12/29 03:24:26;;;;;;;16.20;4.60;;;;;;;2.57;85.17;98849.45;51232;1317;1016351;-61
2021/12/29 03:26:57;;;;;;;17.40;5.00;;;;;;;2.58;85.31;98848.86;51288;1317;1016687;-61
2021/12/29 03:29:28;;;;;;;15.70;4.40;;;;;;;2.63;85.45;98847.48;51223;1319;1016611;-61
2021/12/29 03:32:06;;;;;;;17.50;4.80;;;;;;;2.64;85.24;98844.33;51210;1315;1018682;-61
2021/12/29 03:34:37;;;;;;;20.80;6.20;;;;;;;2.67;85.13;98845.48;51319;1316;1016622;-61
2021/12/29 03:37:09;;;;;;;42.10;17.60;;;;;;;2.66;85.11;98842.13;51299;1317;1016813;-61
2021/12/29 03:39:42;;;;;;;34.50;16.30;;;;;;;2.70;85.16;98843.67;51322;1319;1016438;-61
2021/12/29 03:42:14;;;;;;;29.40;11.70;;;;;;;2.73;84.96;98850.77;51268;1318;1015892;-61
2021/12/29 03:44:46;;;;;;;21.90;7.60;;;;;;;2.76;84.95;98851.21;51267;1316;1019715;-61
2021/12/29 03:47:17;;;;;;;18.00;5.20;;;;;;;2.79;84.96;98854.21;51351;1319;1016683;-60
2021/12/29 03:49:48;;;;;;;19.00;5.30;;;;;;;2.83;84.81;98853.44;51220;1317;1017202;-60
2021/12/29 03:52:19;;;;;;;20.70;5.50;;;;;;;2.85;84.69;98849.80;51307;1319;1015981;-61
2021/12/29 03:54:51;;;;;;;20.70;5.80;;;;;;;2.87;84.60;98854.60;51165;1319;1016246;-61
2021/12/29 03:57:23;;;;;;;23.50;6.20;;;;;;;2.89;84.59;98862.69;51292;1313;1016190;-66
2021/12/29 03:59:54;;;;;;;25.80;6.20;;;;;;;2.89;84.49;98861.67;51203;1318;1016916;-62
2021/12/29 04:02:26;;;;;;;17.80;5.30;;;;;;;2.87;84.43;98867.29;51318;1318;1015997;-61
2021/12/29 04:04:57;;;;;;;22.50;6.40;;;;;;;2.84;84.30;98876.93;51352;1319;1016658;-60
2021/12/29 04:07:31;;;;;;;22.00;7.00;;;;;;;2.81;84.40;98883.67;51253;1319;1016556;-60
2021/12/29 04:10:02;;;;;;;24.60;7.00;;;;;;;2.85;84.55;98887.67;51338;1318;1018378;-61
2021/12/29 04:12:33;;;;;;;25.40;6.60;;;;;;;2.88;84.44;98896.34;51203;1319;1016943;-61
2021/12/29 04:15:07;;;;;;;21.40;6.30;;;;;;;2.84;84.26;98890.61;51282;1319;1016252;-61
2021/12/29 04:17:39;;;;;;;21.20;6.30;;;;;;;2.81;84.35;98889.34;51255;1319;1020018;-61
2021/12/29 04:23:04;;;;;;;20.60;7.00;;;;;;;2.75;84.29;98892.67;51267;1316;1016550;-61
2021/12/29 04:25:37;;;;;;;21.80;6.90;;;;;;;2.74;84.36;98896.89;51237;1319;1016518;-61
2021/12/29 04:28:14;;;;;;;19.90;6.60;;;;;;;2.72;84.36;98899.23;51350;1319;1020112;-61
2021/12/29 04:30:45;;;;;;;19.10;5.80;;;;;;;2.70;84.30;98897.48;51298;1317;1015933;-60
2021/12/29 04:33:17;;;;;;;24.50;8.20;;;;;;;2.67;84.28;98900.41;51279;1319;1019161;-63
2021/12/29 04:35:49;;;;;;;25.00;8.30;;;;;;;2.65;84.20;98901.39;51265;1318;1016520;-62
2021/12/29 04:38:21;;;;;;;23.40;7.10;;;;;;;2.62;84.27;98900.86;51283;1319;1016469;-61
2021/12/29 04:40:55;;;;;;;19.70;6.90;;;;;;;2.64;84.30;98908.64;51406;1319;1016050;-62
2021/12/29 04:43:26;;;;;;;21.40;6.90;;;;;;;2.62;84.20;98905.73;51201;1319;1016722;-62
2021/12/29 04:45:58;;;;;;;23.70;9.00;;;;;;;2.59;84.24;98907.30;51246;1319;1016426;-61
2021/12/29 04:48:37;;;;;;;21.90;9.30;;;;;;;2.56;84.22;98916.15;51246;1319;1016386;-61
2021/12/29 04:51:15;;;;;;;24.10;9.10;;;;;;;2.56;84.34;98919.31;51315;1318;1016653;-61
2021/12/29 04:53:46;;;;;;;23.20;8.90;;;;;;;2.54;84.32;98920.02;51304;1319;1016596;-61
2021/12/29 04:56:17;;;;;;;24.60;8.60;;;;;;;2.50;84.29;98921.66;51286;1319;1016589;-61
2021/12/29 04:58:48;;;;;;;21.10;8.20;;;;;;;2.49;84.39;98927.14;51331;1319;1015981;-61
2021/12/29 05:01:19;;;;;;;24.50;9.30;;;;;;;2.49;84.42;98932.25;51151;1319;1020251;-61
2021/12/29 05:03:51;;;;;;;23.80;8.50;;;;;;;2.48;84.45;98927.86;51298;1319;1016716;-61
2021/12/29 05:09:13;;;;;;;28.50;10.70;;;;;;;2.43;84.49;98932.71;51257;1319;1016429;-61
2021/12/29 05:11:46;;;;;;;27.90;10.90;;;;;;;2.45;84.61;98938.55;51220;1317;1019472;-61
2021/12/29 05:14:17;;;;;;;23.40;9.50;;;;;;;2.48;84.66;98941.11;51316;1319;1016120;-61
2021/12/29 05:16:48;;;;;;;25.40;10.10;;;;;;;2.45;84.53;98943.29;51229;1316;1019949;-61
2021/12/29 05:19:20;;;;;;;21.20;9.00;;;;;;;2.43;84.55;98937.74;51292;1319;1016620;-60
2021/12/29 05:21:51;;;;;;;22.40;9.70;;;;;;;2.42;84.60;98947.32;51285;1319;1016866;-61
2021/12/29 05:24:23;;;;;;;25.60;9.20;;;;;;;2.43;84.65;98943.44;51128;1315;1016319;-61
2021/12/29 05:26:55;;;;;;;22.40;9.60;;;;;;;2.40;84.57;98949.22;51257;1319;1016521;-61
2021/12/29 05:29:27;;;;;;;21.30;7.30;;;;;;;2.40;84.63;98953.08;51228;1319;1017149;-61
2021/12/29 05:31:58;;;;;;;22.70;8.70;;;;;;;2.40;84.62;98952.46;51207;1318;1018167;-61
2021/12/29 05:34:29;;;;;;;20.10;7.80;;;;;;;2.37;84.53;98955.56;51278;1316;1016627;-61
2021/12/29 05:37:00;;;;;;;21.90;9.40;;;;;;;2.36;84.64;98962.15;51191;1319;1016283;-61
2021/12/29 05:39:32;;;;;;;23.20;9.50;;;;;;;2.35;84.66;98969.81;51314;1319;1016702;-61
2021/12/29 05:42:03;;;;;;;20.30;9.00;;;;;;;2.33;84.67;98968.69;51236;1319;1020115;-61
2021/12/29 05:44:34;;;;;;;22.60;10.20;;;;;;;2.32;84.75;98967.89;51241;1319;1016512;-61
2021/12/29 05:47:07;;;;;;;22.70;9.90;;;;;;;2.33;84.80;98969.02;51192;1319;1016453;-60
2021/12/29 05:49:38;;;;;;;20.70;9.20;;;;;;;2.28;84.64;98965.66;51318;1318;1016595;-62
2021/12/29 05:52:10;;;;;;;21.20;9.30;;;;;;;2.25;84.80;98969.09;51133;1319;1016462;-62
2021/12/29 05:54:41;;;;;;;22.40;9.60;;;;;;;2.26;84.82;98970.34;51166;1313;1017378;-62
2021/12/29 05:57:12;;;;;;;22.10;9.20;;;;;;;2.23;84.89;98971.52;51252;1319;1018149;-62
2021/12/29 05:59:43;;;;;;;29.60;12.80;;;;;;;2.23;85.05;98974.13;51247;1312;1016593;-62
2021/12/29 06:02:14;;;;;;;31.90;13.20;;;;;;;2.21;84.93;98977.83;51256;1319;1019127;-61
2021/12/29 06:04:45;;;;;;;27.90;12.80;;;;;;;2.17;84.97;98977.27;51239;1319;1016610;-63
2021/12/29 06:07:16;;;;;;;29.40;14.90;;;;;;;2.16;84.88;98976.76;51255;1316;1017837;-62
2021/12/29 06:09:47;;;;;;;22.90;11.40;;;;;;;2.16;84.88;98984.89;51150;1317;1016494;-59
2021/12/29 06:12:18;;;;;;;22.40;9.70;;;;;;;2.14;84.90;98984.15;51265;1319;1016314;-61
2021/12/29 06:14:51;;;;;;;24.10;9.20;;;;;;;2.10;84.89;98983.80;51178;1319;1016342;-60
2021/12/29 06:17:23;;;;;;;21.00;8.70;;;;;;;2.08;85.05;98986.36;51172;1317;1016701;-60
2021/12/29 06:19:56;;;;;;;21.80;8.50;;;;;;;2.08;85.11;98985.84;51336;1317;1016563;-61
2021/12/29 06:22:27;;;;;;;22.00;8.40;;;;;;;2.08;85.17;98989.75;51243;1319;1016724;-60
2021/12/29 06:24:58;;;;;;;22.20;9.10;;;;;;;2.06;85.17;98990.61;51228;1313;1016717;-61
2021/12/29 06:27:31;;;;;;;19.20;7.90;;;;;;;2.07;85.15;98995.47;51210;1317;1020097;-61
2021/12/29 06:30:02;;;;;;;21.60;8.80;;;;;;;2.05;85.20;99004.02;51228;1319;1016554;-61
2021/12/29 06:32:33;;;;;;;23.30;8.60;;;;;;;2.03;85.17;99008.81;51255;1319;1016921;-60
2021/12/29 06:35:05;;;;;;;21.80;8.50;;;;;;;1.99;85.17;99017.39;51175;1319;1017934;-60
2021/12/29 06:37:37;;;;;;;26.00;8.70;;;;;;;1.98;85.36;99022.00;51348;1319;1016001;-60
2021/12/29 06:40:11;;;;;;;20.70;8.70;;;;;;;1.97;85.38;99029.27;51282;1317;1016714;-61
2021/12/29 06:42:43;;;;;;;29.60;12.00;;;;;;;1.97;85.44;99029.50;51254;1313;1016206;-61
2021/12/29 06:45:14;;;;;;;33.20;18.90;;;;;;;1.99;85.52;99031.63;51203;1320;1016691;-61
2021/12/29 06:47:46;;;;;;;43.60;27.50;;;;;;;1.99;85.56;99043.20;51310;1318;1016207;-61
2021/12/29 06:50:17;;;;;;;70.10;43.90;;;;;;;2.01;85.58;99047.30;51183;1313;1016009;-60
2021/12/29 06:52:48;;;;;;;79.80;50.00;;;;;;;2.03;85.61;99053.14;51177;1317;1018121;-60
2021/12/29 06:55:20;;;;;;;81.20;51.70;;;;;;;2.03;85.60;99053.13;51210;1319;1016426;-68
2021/12/29 06:57:51;;;;;;;68.40;46.20;;;;;;;2.06;85.65;99055.91;51207;1319;1016543;-61
2021/12/29 07:00:22;;;;;;;45.40;28.40;;;;;;;2.08;85.66;99061.08;51198;1315;1016470;-61
2021/12/29 07:02:53;;;;;;;71.50;31.50;;;;;;;2.07;85.54;99062.54;51228;1313;1016754;-62
2021/12/29 07:05:24;;;;;;;50.20;26.00;;;;;;;2.07;85.63;99064.68;51262;1313;1019097;-61
2021/12/29 07:07:56;;;;;;;47.70;22.10;;;;;;;2.04;85.57;99073.83;51327;1319;1016678;-61
2021/12/29 07:10:28;;;;;;;53.00;23.50;;;;;;;2.04;85.63;99074.05;51155;1319;1016248;-61
2021/12/29 07:12:59;;;;;;;55.20;24.80;;;;;;;2.02;85.65;99078.30;51213;1317;1016421;-61
2021/12/29 07:15:30;;;;;;;44.50;21.90;;;;;;;2.03;85.78;99081.66;51392;1313;1016591;-61
2021/12/29 07:18:01;;;;;;;42.70;22.60;;;;;;;2.03;85.78;99084.94;51217;1318;1016711;-61
2021/12/29 07:20:32;;;;;;;44.90;20.70;;;;;;;2.03;85.83;99088.33;51292;1318;1016972;-61
2021/12/29 07:23:03;;;;;;;52.50;24.40;;;;;;;2.04;85.91;99093.91;51199;1317;1016986;-61
2021/12/29 07:25:34;;;;;;;70.70;32.00;;;;;;;2.06;85.90;99101.69;51284;1318;1016461;-62
2021/12/29 07:28:06;;;;;;;56.50;24.80;;;;;;;2.05;85.77;99104.48;51192;1316;1018595;-61
2021/12/29 07:30:37;;;;;;;43.20;19.00;;;;;;;2.05;85.87;99110.13;51258;1317;1016359;-62
2021/12/29 07:33:08;;;;;;;35.10;14.30;;;;;;;2.07;85.96;99115.65;51413;1313;1016411;-62
2021/12/29 07:35:40;;;;;;;31.30;14.00;;;;;;;2.07;86.03;99117.35;51240;1319;1015891;-61
2021/12/29 07:38:11;;;;;;;32.70;14.50;;;;;;;2.09;86.10;99121.13;51276;1317;1016512;-62
2021/12/29 07:40:43;;;;;;;32.70;15.30;;;;;;;2.09;86.06;99124.77;51314;1317;1016918;-62
2021/12/29 07:43:14;;;;;;;30.30;15.20;;;;;;;2.09;86.13;99132.79;51332;1318;1016560;-62
2021/12/29 07:45:45;;;;;;;28.60;14.60;;;;;;;2.09;86.20;99133.17;51381;1313;1016649;-63
2021/12/29 07:48:17;;;;;;;31.60;15.20;;;;;;;2.11;86.33;99137.11;51387;1318;1016632;-62
2021/12/29 07:50:48;;;;;;;29.80;13.60;;;;;;;2.10;86.15;99132.98;51498;1319;1016112;-62
2021/12/29 07:53:20;;;;;;;31.80;12.80;;;;;;;2.07;86.14;99132.02;51322;1314;1016351;-62
2021/12/29 07:55:51;;;;;;;26.10;12.50;;;;;;;2.07;86.19;99134.21;51260;1317;1018131;-62
2021/12/29 07:58:22;;;;;;;26.00;11.10;;;;;;;2.04;86.20;99137.86;51250;1319;1016679;-62
2021/12/29 08:00:53;;;;;;;27.30;11.90;;;;;;;2.03;86.27;99135.92;51284;1317;1016431;-62
2021/12/29 08:03:24;;;;;;;28.80;12.80;;;;;;;2.03;86.33;99143.33;51317;1313;1016478;-62
2021/12/29 08:05:56;;;;;;;26.10;12.30;;;;;;;2.06;86.47;99149.73;51155;1318;1017119;-62
2021/12/29 08:08:29;;;;;;;28.90;12.90;;;;;;;2.10;86.48;99154.79;51430;1319;1016711;-62
2021/12/29 08:11:00;;;;;;;31.20;14.60;;;;;;;2.11;86.45;99159.38;51304;1319;1016637;-62
2021/12/29 08:13:32;;;;;;;28.00;12.80;;;;;;;2.14;86.67;99163.68;51292;1317;1017127;-62
2021/12/29 08:16:03;;;;;;;28.30;13.70;;;;;;;2.18;86.72;99162.52;51319;1313;1015876;-62
2021/12/29 08:18:34;;;;;;;31.70;14.40;;;;;;;2.21;86.70;99166.27;51285;1317;1016639;-62
2021/12/29 08:21:05;;;;;;;35.70;14.10;;;;;;;2.23;86.55;99170.03;51562;1319;1016748;-62
2021/12/29 08:23:36;;;;;;;38.20;17.80;;;;;;;2.24;86.60;99172.69;51170;1319;1016313;-62
2021/12/29 08:26:08;;;;;;;50.30;25.10;;;;;;;2.24;86.59;99174.79;51279;1313;1015994;-62
2021/12/29 08:28:39;;;;;;;44.90;22.40;;;;;;;2.25;86.67;99174.75;51213;1318;1016696;-62
2021/12/29 08:31:10;;;;;;;33.50;16.50;;;;;;;2.26;86.77;99179.86;51135;1317;1017289;-62
2021/12/29 08:33:45;;;;;;;36.70;15.00;;;;;;;2.26;86.65;99185.09;51244;1318;1016047;-62
2021/12/29 08:36:16;;;;;;;36.90;17.50;;;;;;;2.25;86.77;99185.09;51259;1313;1016748;-62
2021/12/29 08:38:48;;;;;;;38.70;17.30;;;;;;;2.26;86.97;99183.53;51216;1318;1016285;-62
2021/12/29 08:41:20;;;;;;;34.00;16.70;;;;;;;2.27;87.00;99184.92;51226;1313;1016559;-63
2021/12/29 08:43:52;;;;;;;35.00;17.40;;;;;;;2.26;86.99;99190.39;51313;1314;1016535;-62
2021/12/29 08:46:56;;;;;;;31.70;16.70;;;;;;;2.29;87.19;99193.89;101523;1338;545491;-77
2021/12/29 08:49:27;;;;;;;33.90;15.80;;;;;;;2.27;87.24;99198.20;102934;1326;22629;-77
2021/12/29 08:51:58;;;;;;;30.60;13.50;;;;;;;2.30;87.26;99199.84;103009;1323;22609;-77
2021/12/29 08:54:29;;;;;;;27.30;12.80;;;;;;;2.31;87.37;99200.34;103065;1322;23037;-78
2021/12/29 08:57:00;;;;;;;34.80;14.90;;;;;;;2.33;87.41;99205.53;103041;1327;22613;-78
2021/12/29 08:59:32;;;;;;;35.40;16.60;;;;;;;2.35;87.48;99209.58;102829;1326;304970;-78
2021/12/29 09:02:03;;;;;;;34.60;18.80;;;;;;;2.38;87.54;99209.77;104017;1311;25547;-77
2021/12/29 09:04:34;;;;;;;38.10;20.20;;;;;;;2.41;87.52;99210.52;104104;1309;22597;-78
2021/12/29 09:07:06;;;;;;;39.90;20.90;;;;;;;2.42;87.48;99214.43;104091;1316;22574;-78
2021/12/29 09:09:38;;;;;;;38.70;21.30;;;;;;;2.44;87.56;99216.70;104072;1313;25409;-78
2021/12/29 09:12:11;;;;;;;37.10;19.00;;;;;;;2.46;87.57;99218.19;104420;1309;24268;-79
2021/12/29 09:14:44;;;;;;;39.10;19.50;;;;;;;2.45;87.51;99220.91;104754;1314;23272;-79
2021/12/29 09:17:15;;;;;;;39.30;20.20;;;;;;;2.42;87.45;99223.02;105234;1309;22600;-79
2021/12/29 09:19:47;;;;;;;44.00;20.80;;;;;;;2.43;87.58;99216.98;105084;1310;22622;-79
2021/12/29 09:22:20;;;;;;;39.00;19.90;;;;;;;2.46;87.77;99219.81;105102;1310;22621;-79
2021/12/29 09:24:51;;;;;;;35.00;16.80;;;;;;;2.51;87.73;99225.11;105088;1309;25395;-79
2021/12/29 09:27:24;;;;;;;35.20;18.30;;;;;;;2.54;87.70;99224.40;104838;1309;25007;-79
2021/12/29 09:29:57;;;;;;;43.00;21.70;;;;;;;2.57;87.77;99223.74;104726;1313;22709;-79
2021/12/29 09:32:31;;;;;;;43.10;24.90;;;;;;;2.58;87.74;99222.27;104586;1315;22553;-79
2021/12/29 09:35:02;;;;;;;50.40;24.20;;;;;;;2.62;87.89;99221.91;105040;1309;22567;-79
2021/12/29 09:37:32;;;;;;;58.30;31.60;;;;;;;2.65;88.12;99220.27;105035;1309;22685;-79
2021/12/29 09:40:04;;;;;;;66.80;35.60;;;;;;;2.68;88.06;99220.65;105012;1309;22580;-79
2021/12/29 09:42:34;;;;;;;63.50;36.60;;;;;;;2.74;88.43;99215.30;105072;1314;22630;-79
2021/12/29 09:45:07;;;;;;;69.90;35.60;;;;;;;2.78;88.49;99210.73;105120;1315;22640;-79
2021/12/29 09:47:39;;;;;;;55.50;31.50;;;;;;;2.82;88.61;99207.36;105001;1309;22648;-79
2021/12/29 09:50:15;;;;;;;66.40;35.20;;;;;;;2.87;88.63;99205.91;105155;1314;25245;-79
2021/12/29 09:52:46;;;;;;;57.90;32.60;;;;;;;2.91;88.64;99200.14;105233;1309;25414;-79
2021/12/29 09:55:20;;;;;;;50.90;28.10;;;;;;;2.94;88.59;99200.90;104739;1309;22558;-79
2021/12/29 09:57:55;;;;;;;44.50;23.30;;;;;;;2.99;88.64;99200.23;104741;1309;22656;-79
2021/12/29 10:00:29;;;;;;;45.40;21.20;;;;;;;3.03;88.50;99205.66;105113;1309;25288;-79
2021/12/29 10:03:02;;;;;;;42.40;23.40;;;;;;;3.08;88.41;99213.27;104862;1315;25743;-79
2021/12/29 10:05:35;;;;;;;41.20;22.50;;;;;;;3.10;88.42;99216.69;105139;1316;23699;-79
2021/12/29 10:08:08;;;;;;;46.00;22.60;;;;;;;3.12;88.48;99220.42;105063;1309;23432;-79
2021/12/29 10:10:42;;;;;;;48.30;25.30;;;;;;;3.17;88.80;99222.63;105443;1309;23143;-79
2021/12/29 10:13:14;;;;;;;48.50;25.20;;;;;;;3.24;88.85;99225.96;105291;1309;22637;-79
2021/12/29 10:15:47;;;;;;;46.20;24.20;;;;;;;3.32;89.08;99228.17;104872;1309;22627;-79
2021/12/29 10:18:21;;;;;;;53.40;28.30;;;;;;;3.41;89.24;99225.08;105001;1309;22586;-79
2021/12/29 10:20:55;;;;;;;61.80;34.10;;;;;;;3.47;89.16;99228.04;104768;1309;22571;-79
2021/12/29 10:23:29;;;;;;;52.60;28.10;;;;;;;3.53;89.26;99226.77;104777;1313;22592;-79
2021/12/29 10:26:08;;;;;;;52.30;29.00;;;;;;;3.58;89.17;99226.57;105336;1309;22588;-79
2021/12/29 10:28:43;;;;;;;55.10;28.50;;;;;;;3.62;89.15;99223.39;105431;1310;22603;-79
2021/12/29 10:31:17;;;;;;;48.50;25.60;;;;;;;3.69;89.11;99221.48;104885;1309;22793;-79
2021/12/29 10:33:51;;;;;;;53.50;28.30;;;;;;;3.73;89.12;99227.77;104833;1309;22586;-79
2021/12/29 10:36:25;;;;;;;54.40;29.80;;;;;;;3.78;89.28;99227.63;105244;1309;22707;-79
2021/12/29 10:39:05;;;;;;;51.30;27.30;;;;;;;3.82;89.37;99232.66;105101;1309;22639;-78
2021/12/29 10:41:48;;;;;;;43.80;24.20;;;;;;;3.87;89.41;99239.17;105268;1315;23962;-79
2021/12/29 10:44:26;;;;;;;50.40;26.40;;;;;;;3.93;89.38;99242.62;104864;1310;22555;-79
2021/12/29 10:46:58;;;;;;;53.40;27.60;;;;;;;3.99;89.24;99245.74;104843;1310;22766;-79
2021/12/29 10:49:31;;;;;;;49.80;26.20;;;;;;;4.05;89.41;99248.00;104874;1309;22648;-79
2021/12/29 10:52:03;;;;;;;50.10;26.20;;;;;;;4.10;89.18;99252.39;105336;1309;22580;-79
2021/12/29 10:54:33;;;;;;;49.50;25.10;;;;;;;4.13;89.08;99252.43;105240;1309;24206;-79
2021/12/29 10:57:09;;;;;;;50.00;25.10;;;;;;;4.15;89.01;99255.96;104741;1315;24431;-78
2021/12/29 10:59:42;;;;;;;47.60;26.30;;;;;;;4.20;89.19;99263.20;104806;1313;22672;-79
2021/12/29 11:02:13;;;;;;;51.50;25.60;;;;;;;4.22;89.16;99269.56;105303;1309;25294;-79
2021/12/29 11:04:54;;;;;;;49.40;26.50;;;;;;;4.25;88.91;99273.26;104769;1309;24070;-78
2021/12/29 11:07:30;;;;;;;47.70;23.70;;;;;;;4.30;88.91;99276.97;104730;1309;22611;-78
2021/12/29 11:10:12;;;;;;;46.60;22.20;;;;;;;4.35;88.82;99275.55;104756;1310;22797;-78
2021/12/29 11:12:49;;;;;;;43.60;21.60;;;;;;;4.42;88.91;99278.71;104912;1309;22616;-78
2021/12/29 11:15:23;;;;;;;44.80;21.70;;;;;;;4.46;88.76;99278.02;104920;1307;22697;-79
2021/12/29 11:17:55;;;;;;;48.60;22.70;;;;;;;4.47;88.70;99279.44;104666;1312;22695;-77
2021/12/29 11:20:31;;;;;;;43.20;22.50;;;;;;;4.49;88.56;99277.01;104067;1309;22578;-77
2021/12/29 11:23:10;;;;;;;47.60;23.80;;;;;;;4.51;88.64;99280.42;104203;1307;24279;-77
2021/12/29 11:25:43;;;;;;;47.00;23.90;;;;;;;4.52;88.50;99282.25;104089;1309;22719;-76
2021/12/29 11:28:25;;;;;;;47.70;24.50;;;;;;;4.53;88.61;99283.23;103922;1309;22716;-76
2021/12/29 11:30:58;;;;;;;55.10;24.70;;;;;;;4.55;88.76;99289.44;103928;1313;25467;-76
2021/12/29 11:33:32;;;;;;;44.50;23.10;;;;;;;4.58;88.72;99286.64;104160;1309;25715;-77
2021/12/29 11:36:06;;;;;;;48.80;24.50;;;;;;;4.59;88.57;99287.08;104189;1316;23491;-77
2021/12/29 11:38:37;;;;;;;40.00;19.70;;;;;;;4.59;88.63;99289.10;104003;1313;23990;-77
2021/12/29 11:41:09;;;;;;;46.70;20.00;;;;;;;4.59;88.52;99290.70;104065;1311;22592;-78
2021/12/29 11:43:40;;;;;;;38.20;18.10;;;;;;;4.58;88.61;99290.41;104315;1314;22535;-77